createdAt,value
2019-02-22T00:02:10.611Z,29.40
2019-02-22T00:04:39.703Z,32.87
2019-02-22T00:07:08.800Z,34.53
2019-02-22T00:09:48.882Z,32.20
2019-02-22T00:12:08.725Z,31.03
2019-02-22T00:14:37.813Z,29.77
2019-02-22T00:17:06.903Z,31.17
2019-02-22T00:19:36.009Z,32.27
2019-02-22T00:22:05.299Z,35.00
2019-02-22T00:24:34.404Z,34.20
2019-02-22T00:27:03.572Z,35.87
2019-02-22T00:29:32.676Z,32.80
2019-02-22T00:32:01.764Z,34.97
2019-02-22T00:34:30.945Z,36.60
2019-02-22T00:37:00.084Z,33.43
2019-02-22T00:42:15.712Z,38.00
2019-02-22T00:44:44.812Z,38.97
2019-02-22T00:47:13.903Z,35.97
2019-02-22T00:49:43.010Z,33.63
2019-02-22T00:52:12.105Z,34.80
2019-02-22T00:54:41.238Z,38.00
2019-02-22T00:57:10.326Z,38.27
2019-02-22T00:59:39.431Z,36.27
2019-02-22T01:02:08.522Z,39.67
2019-02-22T01:04:37.634Z,39.37
2019-02-22T01:07:06.724Z,38.73
2019-02-22T01:09:35.825Z,37.67
2019-02-22T01:12:04.909Z,35.90
2019-02-22T01:14:34.087Z,38.73
2019-02-22T01:17:03.182Z,38.63
2019-02-22T01:19:32.288Z,37.40
2019-02-22T01:22:01.372Z,36.53
2019-02-22T01:24:30.557Z,37.93
2019-02-22T01:26:59.644Z,38.57
2019-02-22T01:29:28.746Z,39.40
2019-02-22T01:31:57.836Z,36.97
2019-02-22T01:34:26.946Z,42.33
2019-02-22T01:36:56.037Z,38.23
2019-02-22T01:39:25.123Z,43.00
2019-02-22T01:41:54.233Z,39.37
2019-02-22T01:44:23.506Z,41.07
2019-02-22T01:46:52.627Z,41.77
2019-02-22T01:49:21.703Z,42.90
2019-02-22T01:51:50.814Z,41.67
2019-02-22T01:54:19.932Z,43.93
2019-02-22T01:56:49.034Z,44.80
2019-02-22T01:59:18.121Z,49.10
2019-02-22T02:01:47.232Z,47.60
2019-02-22T02:04:16.318Z,51.33
2019-02-22T02:06:45.427Z,51.50
2019-02-22T02:09:14.603Z,50.07
2019-02-22T02:11:43.711Z,55.97
2019-02-22T02:14:12.793Z,60.00
2019-02-22T02:16:41.911Z,61.97
2019-02-22T02:19:10.999Z,61.07
2019-02-22T02:21:40.111Z,68.70
2019-02-22T02:24:09.201Z,73.10
2019-02-22T02:26:38.322Z,69.93
2019-02-22T02:29:07.412Z,69.13
2019-02-22T02:31:36.565Z,74.00
2019-02-22T02:34:05.615Z,70.50
2019-02-22T02:36:34.698Z,75.60
2019-02-22T02:39:05.077Z,77.87
2019-02-22T02:41:34.167Z,77.37
2019-02-22T02:44:03.301Z,78.17
2019-02-22T02:46:32.472Z,72.23
2019-02-22T02:49:01.577Z,73.70
2019-02-22T02:51:30.664Z,78.33
2019-02-22T02:53:59.785Z,71.43
2019-02-22T02:56:28.900Z,69.63
2019-02-22T02:58:58.010Z,75.43
2019-02-22T03:01:27.105Z,67.67
2019-02-22T03:03:56.216Z,74.53
2019-02-22T03:06:42.909Z,69.30
2019-02-22T03:09:12.017Z,76.53
2019-02-22T03:11:41.108Z,76.73
2019-02-22T03:14:10.212Z,74.10
2019-02-22T03:16:39.326Z,73.97
2019-02-22T03:19:08.418Z,76.97
2019-02-22T03:21:37.507Z,77.63
2019-02-22T03:24:06.625Z,77.53
2019-02-22T03:26:35.703Z,86.43
2019-02-22T03:29:04.821Z,85.37
2019-02-22T03:31:33.916Z,88.63
2019-02-22T03:34:03.029Z,87.40
2019-02-22T03:36:32.115Z,90.03
2019-02-22T03:39:01.225Z,89.83
2019-02-22T03:41:33.306Z,94.13
2019-02-22T03:44:01.148Z,90.90
2019-02-22T03:46:30.264Z,94.37
2019-02-22T03:48:59.362Z,94.20
2019-02-22T03:51:28.452Z,89.90
2019-02-22T03:54:00.101Z,88.60
2019-02-22T03:56:29.227Z,97.47
2019-02-22T03:58:58.309Z,89.97
2019-02-22T04:01:27.527Z,89.93
2019-02-22T04:03:56.626Z,96.70
2019-02-22T04:06:25.734Z,99.50
2019-02-22T04:08:54.821Z,101.47
2019-02-22T04:11:23.926Z,95.87
2019-02-22T04:13:53.006Z,95.30
2019-02-22T04:16:22.126Z,92.47
2019-02-22T04:18:51.200Z,84.57
2019-02-22T04:21:20.318Z,88.67
2019-02-22T04:23:49.403Z,89.47
2019-02-22T04:26:18.528Z,84.00
2019-02-22T04:28:47.614Z,84.17
2019-02-22T04:31:16.737Z,84.30
2019-02-22T04:33:45.815Z,86.80
2019-02-22T04:36:14.934Z,89.17
2019-02-22T04:38:44.046Z,88.73
2019-02-22T04:41:13.161Z,85.20
2019-02-22T04:43:42.241Z,96.63
2019-02-22T04:46:11.353Z,93.60
2019-02-22T04:48:40.443Z,93.50
2019-02-22T04:51:09.557Z,87.07
2019-02-22T04:53:38.662Z,95.73
2019-02-22T04:56:07.797Z,93.07
2019-02-22T04:58:36.904Z,95.77
2019-02-22T05:01:06.201Z,99.73
2019-02-22T05:03:35.327Z,96.57
2019-02-22T05:06:04.428Z,104.23
2019-02-22T05:08:33.586Z,99.40
2019-02-22T05:11:02.636Z,105.53
2019-02-22T05:13:31.746Z,99.17
2019-02-22T05:16:00.907Z,93.80
2019-02-22T05:18:30.016Z,88.50
2019-02-22T05:20:59.103Z,98.83
2019-02-22T05:23:28.223Z,105.45
2019-02-22T05:25:57.313Z,95.97
2019-02-22T05:28:26.426Z,94.40
2019-02-22T05:30:55.513Z,106.30
2019-02-22T05:33:24.738Z,147.50
2019-02-22T05:35:53.886Z,92.73
2019-02-22T05:38:23.026Z,97.07
2019-02-22T05:41:11.104Z,79.20
2019-02-22T05:43:40.233Z,75.57
2019-02-22T05:46:09.329Z,78.27
2019-02-22T05:48:38.941Z,82.87
2019-02-22T05:51:09.681Z,74.70
2019-02-22T05:53:38.787Z,76.70
2019-02-22T05:56:07.901Z,71.33
2019-02-22T05:58:37.013Z,64.10
2019-02-22T06:01:06.968Z,65.03
2019-02-22T06:03:36.093Z,56.33
2019-02-22T06:06:05.183Z,64.17
2019-02-22T06:08:34.276Z,62.97
2019-02-22T06:11:03.378Z,58.63
2019-02-22T06:13:32.463Z,56.50
2019-02-22T06:16:01.579Z,50.33
2019-02-22T06:18:30.666Z,49.07
2019-02-22T06:20:59.780Z,46.60
2019-02-22T06:23:28.866Z,44.83
2019-02-22T06:25:57.987Z,43.63
2019-02-22T06:28:27.066Z,38.17
2019-02-22T06:30:56.202Z,38.13
2019-02-22T06:33:25.292Z,36.50
2019-02-22T06:35:54.412Z,37.77
2019-02-22T06:38:23.494Z,35.70
2019-02-22T06:40:52.617Z,34.77
2019-02-22T06:43:21.699Z,34.97
2019-02-22T06:45:50.817Z,32.73
2019-02-22T06:48:19.909Z,32.90
2019-02-22T06:50:49.027Z,31.47
2019-02-22T06:53:18.111Z,31.40
2019-02-22T06:55:47.248Z,27.53
2019-02-22T06:58:16.345Z,32.10
2019-02-22T07:00:45.452Z,32.03
2019-02-22T07:03:14.560Z,34.73
2019-02-22T07:05:43.674Z,32.87
2019-02-22T07:08:12.765Z,30.10
2019-02-22T07:11:07.109Z,31.47
2019-02-22T07:13:36.193Z,34.83
2019-02-22T07:16:05.285Z,33.03
2019-02-22T07:18:34.405Z,32.20
2019-02-22T07:21:03.500Z,33.37
2019-02-22T07:23:32.601Z,34.43
2019-02-22T07:26:01.699Z,33.07
2019-02-22T07:28:30.808Z,35.93
2019-02-22T07:30:59.895Z,40.77
2019-02-22T07:33:29.008Z,39.33
2019-02-22T07:35:58.106Z,36.73
2019-02-22T07:38:27.214Z,41.73
2019-02-22T07:40:56.305Z,41.90
2019-02-22T07:43:25.411Z,40.47
2019-02-22T07:45:54.506Z,38.10
2019-02-22T07:48:23.622Z,38.03
2019-02-22T07:50:57.939Z,38.43
2019-02-22T07:53:23.565Z,49.47
2019-02-22T07:55:52.667Z,39.60
2019-02-22T07:58:21.784Z,37.17
2019-02-22T08:00:50.868Z,35.73
2019-02-22T08:03:19.976Z,32.43
2019-02-22T08:05:49.084Z,29.47
2019-02-22T08:08:18.194Z,27.63
2019-02-22T08:10:47.549Z,25.53
2019-02-22T08:13:19.750Z,23.97
2019-02-22T08:15:47.532Z,22.43
2019-02-22T08:18:16.641Z,20.63
2019-02-22T08:20:45.763Z,19.10
2019-02-22T08:23:14.869Z,19.17
2019-02-22T08:25:43.983Z,21.60
2019-02-22T08:28:13.086Z,23.80
2019-02-22T08:30:42.205Z,26.97
2019-02-22T08:33:11.316Z,33.93
2019-02-22T08:35:40.440Z,23.30
2019-02-22T08:38:09.538Z,20.23
2019-02-22T08:40:38.656Z,23.77
2019-02-22T08:43:07.808Z,23.20
2019-02-22T08:45:36.941Z,22.47
2019-02-22T08:48:06.041Z,22.43
2019-02-22T08:50:35.169Z,22.10
2019-02-22T08:53:04.300Z,22.67
2019-02-22T08:55:33.429Z,21.13
2019-02-22T08:58:02.521Z,24.17
2019-02-22T09:00:31.657Z,24.27
2019-02-22T09:03:00.761Z,21.60
2019-02-22T09:05:29.887Z,24.80
2019-02-22T09:07:58.990Z,20.67
2019-02-22T09:10:28.108Z,20.40
2019-02-22T09:12:57.203Z,18.83
2019-02-22T09:15:26.318Z,21.57
2019-02-22T09:17:55.476Z,20.13
2019-02-22T09:20:24.532Z,21.97
2019-02-22T09:22:53.633Z,20.70
2019-02-22T09:25:22.741Z,20.97
2019-02-22T09:27:51.854Z,25.00
2019-02-22T09:30:20.951Z,22.13
2019-02-22T09:32:50.076Z,23.03
2019-02-22T09:35:19.175Z,23.60
2019-02-22T09:37:48.297Z,21.33
2019-02-22T09:40:17.393Z,23.03
2019-02-22T09:42:46.511Z,23.13
2019-02-22T09:45:15.606Z,23.90
2019-02-22T09:47:44.729Z,20.37
2019-02-22T09:50:13.853Z,18.23
2019-02-22T09:52:43.028Z,18.97
2019-02-22T09:55:12.421Z,18.43
2019-02-22T09:57:41.565Z,19.60
2019-02-22T10:00:12.273Z,19.50
2019-02-22T10:02:41.447Z,18.57
2019-02-22T10:05:10.719Z,18.03
2019-02-22T10:07:39.850Z,21.80
2019-02-22T10:10:09.527Z,19.13
2019-02-22T10:12:38.656Z,15.83
2019-02-22T10:15:07.766Z,16.37
2019-02-22T10:17:36.884Z,15.37
2019-02-22T10:20:06.128Z,14.77
2019-02-22T10:22:35.261Z,16.90
2019-02-22T10:25:04.380Z,14.03
2019-02-22T10:27:33.508Z,14.27
2019-02-22T10:30:02.626Z,14.47
2019-02-22T10:32:31.733Z,14.67
2019-02-22T10:35:00.851Z,12.40
2019-02-22T10:37:29.950Z,11.77
2019-02-22T10:39:59.076Z,12.93
2019-02-22T10:42:28.176Z,12.83
2019-02-22T10:44:57.301Z,13.07
2019-02-22T10:47:26.409Z,11.93
2019-02-22T10:49:55.530Z,12.67
2019-02-22T10:52:24.640Z,13.00
2019-02-22T10:54:53.766Z,12.17
2019-02-22T10:57:22.895Z,15.23
2019-02-22T10:59:52.014Z,11.73
2019-02-22T11:02:21.118Z,12.23
2019-02-22T11:04:50.251Z,13.23
2019-02-22T11:07:19.357Z,13.30
2019-02-22T11:09:48.487Z,12.50
2019-02-22T11:12:17.593Z,13.17
2019-02-22T11:14:47.045Z,12.13
2019-02-22T11:17:16.161Z,11.80
2019-02-22T11:19:45.276Z,19.87
2019-02-22T11:22:14.361Z,11.73
2019-02-22T11:24:43.493Z,11.20
2019-02-22T11:27:12.591Z,10.37
2019-02-22T11:29:41.721Z,11.90
2019-02-22T11:32:10.838Z,12.67
2019-02-22T11:34:39.959Z,10.10
2019-02-22T11:37:09.060Z,10.13
2019-02-22T11:39:38.157Z,9.50
2019-02-22T11:42:07.274Z,6.70
2019-02-22T11:44:40.233Z,7.47
2019-02-22T11:47:07.213Z,6.60
2019-02-22T11:49:36.315Z,6.67
2019-02-22T11:52:05.433Z,7.47
2019-02-22T11:54:34.533Z,8.37
2019-02-22T11:57:04.942Z,8.63
2019-02-22T11:59:34.035Z,8.43
2019-02-22T12:02:03.169Z,9.70
2019-02-22T12:04:32.267Z,10.40
2019-02-22T12:07:01.393Z,10.03
2019-02-22T12:09:30.492Z,10.77
2019-02-22T12:11:59.622Z,11.20
2019-02-22T12:14:28.718Z,8.73
2019-02-22T12:16:57.845Z,7.93
2019-02-22T12:19:26.947Z,9.30
2019-02-22T12:21:56.066Z,7.90
2019-02-22T12:24:25.177Z,10.43
2019-02-22T12:26:54.307Z,9.57
2019-02-22T12:29:23.410Z,9.83
2019-02-22T12:31:52.533Z,9.30
2019-02-22T12:34:21.647Z,10.33
2019-02-22T12:36:50.769Z,9.53
2019-02-22T12:39:19.873Z,8.53
2019-02-22T12:41:49.005Z,7.47
2019-02-22T12:44:18.115Z,8.30
2019-02-22T12:46:47.243Z,10.27
2019-02-22T12:49:16.365Z,9.00
2019-02-22T12:51:45.490Z,9.63
2019-02-22T12:54:14.673Z,10.40
2019-02-22T12:56:56.540Z,8.00
2019-02-22T12:59:14.652Z,10.13
2019-02-22T13:01:43.781Z,8.57
2019-02-22T13:04:12.886Z,9.90
2019-02-22T13:06:41.993Z,7.53
2019-02-22T13:09:11.581Z,7.40
2019-02-22T13:11:40.678Z,6.93
2019-02-22T13:14:09.794Z,7.30
2019-02-22T13:16:38.895Z,8.57
2019-02-22T13:19:08.020Z,7.23
2019-02-22T13:21:37.131Z,8.00
2019-02-22T13:24:06.259Z,7.83
2019-02-22T13:26:35.360Z,7.97
2019-02-22T13:29:05.082Z,7.73
2019-02-22T13:31:34.282Z,7.07
2019-02-22T13:34:03.410Z,7.13
2019-02-22T13:36:32.505Z,7.47
2019-02-22T13:39:01.623Z,6.43
2019-02-22T13:41:30.723Z,5.97
2019-02-22T13:43:59.847Z,6.33
2019-02-22T13:46:28.943Z,6.33
2019-02-22T13:48:58.080Z,7.17
2019-02-22T13:51:27.173Z,5.90
2019-02-22T13:53:56.295Z,6.83
2019-02-22T13:56:29.781Z,8.00
2019-02-22T13:58:56.241Z,9.67
2019-02-22T14:01:25.342Z,8.50
2019-02-22T14:03:54.473Z,8.37
2019-02-22T14:06:23.574Z,7.80
2019-02-22T14:08:52.703Z,8.67
2019-02-22T14:11:21.807Z,8.67
2019-02-22T14:13:50.930Z,8.00
2019-02-22T14:16:20.030Z,7.83
2019-02-22T14:18:49.153Z,8.37
2019-02-22T14:21:18.254Z,9.43
2019-02-22T14:23:47.359Z,9.47
2019-02-22T14:26:16.483Z,9.40
2019-02-22T14:28:45.625Z,7.30
2019-02-22T14:31:14.724Z,6.50
2019-02-22T14:33:43.817Z,6.77
2019-02-22T14:36:13.052Z,6.17
2019-02-22T14:38:42.139Z,7.70
2019-02-22T14:41:11.415Z,5.00
2019-02-22T14:43:40.510Z,6.17
2019-02-22T14:46:09.630Z,4.77
2019-02-22T14:48:38.733Z,4.50
2019-02-22T14:51:07.861Z,15.13
2019-02-22T14:53:36.961Z,5.17
2019-02-22T14:56:06.117Z,3.50
2019-02-22T14:58:35.231Z,3.77
2019-02-22T15:01:04.463Z,3.73
2019-02-22T15:03:33.566Z,3.47
2019-02-22T15:06:02.693Z,3.57
2019-02-22T15:08:31.801Z,2.83
2019-02-22T15:11:00.923Z,3.80
2019-02-22T15:13:30.018Z,3.90
2019-02-22T15:16:15.027Z,3.00
2019-02-22T15:18:44.126Z,2.73
2019-02-22T15:21:13.251Z,2.97
2019-02-22T15:23:42.359Z,2.90
2019-02-22T15:26:11.484Z,3.80
2019-02-22T15:28:40.596Z,3.30
2019-02-22T15:31:09.717Z,2.83
2019-02-22T15:33:38.946Z,2.30
2019-02-22T15:36:08.718Z,3.23
2019-02-22T15:38:37.815Z,4.63
2019-02-22T15:41:06.934Z,2.73
2019-02-22T15:43:36.045Z,2.03
2019-02-22T15:46:12.109Z,3.17
2019-02-22T15:48:36.002Z,2.70
2019-02-22T15:51:07.234Z,2.47
2019-02-22T15:53:36.164Z,3.20
2019-02-22T15:56:05.336Z,3.10
2019-02-22T15:58:34.486Z,2.87
2019-02-22T16:01:03.612Z,3.77
2019-02-22T16:03:59.427Z,5.17
2019-02-22T16:06:28.553Z,5.17
2019-02-22T16:08:57.670Z,5.67
2019-02-22T16:11:26.770Z,4.30
2019-02-22T16:13:55.899Z,3.23
2019-02-22T16:16:25.054Z,3.27
2019-02-22T16:18:54.188Z,5.07
2019-02-22T16:21:28.439Z,4.10
2019-02-22T16:23:57.571Z,6.43
2019-02-22T16:26:30.253Z,3.53
2019-02-22T16:28:59.414Z,4.47
2019-02-22T16:31:28.506Z,3.90
2019-02-22T16:33:57.627Z,4.17
2019-02-22T16:36:26.733Z,4.23
2019-02-22T16:38:55.854Z,5.20
2019-02-22T16:41:24.948Z,5.30
2019-02-22T16:43:54.243Z,4.03
2019-02-22T16:46:34.186Z,4.43
2019-02-22T16:48:54.199Z,7.07
2019-02-22T16:51:23.396Z,4.97
2019-02-22T16:53:52.518Z,5.20
2019-02-22T16:56:21.646Z,4.43
2019-02-22T16:58:50.762Z,3.93
2019-02-22T17:01:19.860Z,4.67
2019-02-22T17:03:48.977Z,5.57
2019-02-22T17:06:18.065Z,4.03
2019-02-22T17:08:47.172Z,4.87
2019-02-22T17:11:16.277Z,4.97
2019-02-22T17:13:45.385Z,4.60
2019-02-22T17:16:16.508Z,4.93
2019-02-22T17:18:45.317Z,4.53
2019-02-22T17:21:14.500Z,4.70
2019-02-22T17:23:43.612Z,4.60
2019-02-22T17:26:15.644Z,4.37
2019-02-22T17:28:44.760Z,5.33
2019-02-22T17:31:13.857Z,5.67
2019-02-22T17:33:42.986Z,10.13
2019-02-22T17:36:12.069Z,9.67
2019-02-22T17:38:41.165Z,12.57
2019-02-22T17:41:10.274Z,5.10
2019-02-22T17:43:39.445Z,5.17
2019-02-22T17:46:08.558Z,6.13
2019-02-22T17:48:37.665Z,5.07
2019-02-22T17:51:06.772Z,6.27
2019-02-22T17:53:35.868Z,4.90
2019-02-22T17:56:05.009Z,7.13
2019-02-22T17:58:34.124Z,5.03
2019-02-22T18:01:03.267Z,4.40
2019-02-22T18:03:32.369Z,4.83
2019-02-22T18:06:01.483Z,5.87
2019-02-22T18:08:30.578Z,6.23
2019-02-22T18:10:59.698Z,4.97
2019-02-22T18:13:28.794Z,5.50
2019-02-22T18:15:57.910Z,5.17
2019-02-22T18:18:27.003Z,5.10
2019-02-22T18:20:56.119Z,5.87
2019-02-22T18:23:25.212Z,5.40
2019-02-22T18:25:54.334Z,5.80
2019-02-22T18:28:23.431Z,5.57
2019-02-22T18:30:52.570Z,5.00
2019-02-22T18:33:21.675Z,6.27
2019-02-22T18:35:50.778Z,5.10
2019-02-22T18:38:19.869Z,5.63
2019-02-22T18:40:48.960Z,7.40
2019-02-22T18:43:18.424Z,6.40
2019-02-22T18:45:47.606Z,5.33
2019-02-22T18:48:16.719Z,18.53
2019-02-22T18:50:45.829Z,6.70
2019-02-22T18:53:14.958Z,4.60
2019-02-22T18:55:50.088Z,6.53
2019-02-22T18:58:14.929Z,6.40
2019-02-22T19:00:44.017Z,6.10
2019-02-22T19:03:13.134Z,6.93
2019-02-22T19:05:42.230Z,6.23
2019-02-22T19:08:11.350Z,6.87
2019-02-22T19:10:40.442Z,6.57
2019-02-22T19:13:09.559Z,7.57
2019-02-22T19:15:38.644Z,6.43
2019-02-22T19:18:07.755Z,7.93
2019-02-22T19:20:36.850Z,11.90
2019-02-22T19:23:05.978Z,9.17
2019-02-22T19:25:35.075Z,8.47
2019-02-22T19:28:05.147Z,7.93
2019-02-22T19:30:34.324Z,7.53
2019-02-22T19:33:03.440Z,7.57
2019-02-22T19:35:32.538Z,8.07
2019-02-22T19:38:01.645Z,9.30
2019-02-22T19:40:30.735Z,9.00
2019-02-22T19:42:59.850Z,9.10
2019-02-22T19:45:28.942Z,8.83
2019-02-22T19:47:58.059Z,24.07
2019-02-22T19:50:27.152Z,10.13
2019-02-22T19:52:56.247Z,9.80
2019-02-22T19:55:25.370Z,9.33
2019-02-22T19:57:54.490Z,8.77
2019-02-22T20:00:24.695Z,9.87
2019-02-22T20:02:54.644Z,8.53
2019-02-22T20:05:24.274Z,9.87
2019-02-22T20:07:54.080Z,8.80
2019-02-22T20:10:23.806Z,8.77
2019-02-22T20:12:53.691Z,9.80
2019-02-22T20:15:23.170Z,10.57
2019-02-22T20:17:55.083Z,10.87
2019-02-22T20:20:25.384Z,9.27
2019-02-22T20:22:55.068Z,10.40
2019-02-22T20:25:24.747Z,11.57
2019-02-22T20:27:54.359Z,11.07
2019-02-22T20:30:24.324Z,9.27
2019-02-22T20:32:53.918Z,10.47
2019-02-22T20:35:24.145Z,9.07
2019-02-22T20:37:53.949Z,8.83
2019-02-22T20:40:24.006Z,9.33
2019-02-22T20:42:53.711Z,13.23
2019-02-22T20:45:23.837Z,11.87
2019-02-22T20:48:04.351Z,12.80
2019-02-22T20:50:26.974Z,13.43
2019-02-22T20:52:56.930Z,12.37
2019-02-22T20:55:26.353Z,11.47
2019-02-22T20:57:55.494Z,11.67
2019-02-22T21:00:24.629Z,15.30
2019-02-22T21:02:53.744Z,22.03
2019-02-22T21:05:22.856Z,22.30
2019-02-22T21:07:51.974Z,18.67
2019-02-22T21:10:21.270Z,14.63
2019-02-22T21:12:50.527Z,17.17
2019-02-22T21:15:19.749Z,16.17
2019-02-22T21:17:49.075Z,15.20
2019-02-22T21:20:18.285Z,20.20
2019-02-22T21:22:47.858Z,20.07
2019-02-22T21:25:17.077Z,17.33
2019-02-22T21:27:46.414Z,17.97
2019-02-22T21:30:15.690Z,16.80
2019-02-22T21:32:44.813Z,21.90
2019-02-22T21:35:14.234Z,23.03
2019-02-22T21:37:43.580Z,19.80
2019-02-22T21:40:12.953Z,18.77
2019-02-22T21:42:42.427Z,22.57
2019-02-22T21:45:11.761Z,24.53
2019-02-22T21:47:54.401Z,23.83
2019-02-22T21:50:14.067Z,25.43
2019-02-22T21:52:43.190Z,26.67
2019-02-22T21:55:12.583Z,31.97
2019-02-22T21:57:41.959Z,21.67
2019-02-22T22:00:14.191Z,22.73
2019-02-22T22:02:43.458Z,22.10
2019-02-22T22:05:12.702Z,24.63
2019-02-22T22:07:42.061Z,25.93
2019-02-22T22:10:11.318Z,25.67
2019-02-22T22:12:40.596Z,22.80
2019-02-22T22:15:10.832Z,23.37
2019-02-22T22:17:40.166Z,28.67
2019-02-22T22:20:09.806Z,26.80
2019-02-22T22:22:39.068Z,24.90
2019-02-22T22:25:09.012Z,28.33
2019-02-22T22:27:38.279Z,29.10
2019-02-22T22:30:08.354Z,28.50
2019-02-22T22:32:38.303Z,25.87
2019-02-22T22:35:08.049Z,22.60
2019-02-22T22:37:38.143Z,23.40
2019-02-22T22:40:08.513Z,27.87
2019-02-22T22:42:37.720Z,29.43
2019-02-22T22:45:07.182Z,29.93
2019-02-22T22:47:36.502Z,26.67
2019-02-22T22:50:06.890Z,21.13
2019-02-22T22:52:35.989Z,24.20
2019-02-22T22:55:05.133Z,31.17
2019-02-22T22:57:34.257Z,41.33
2019-02-22T23:00:03.401Z,26.07
2019-02-22T23:02:32.503Z,26.03
2019-02-22T23:05:01.637Z,30.30
2019-02-22T23:07:30.737Z,29.80
2019-02-22T23:09:59.864Z,26.27
2019-02-22T23:12:28.964Z,28.07
2019-02-22T23:14:58.083Z,26.00
2019-02-22T23:17:27.188Z,30.13
2019-02-22T23:19:56.312Z,24.87
2019-02-22T23:22:25.421Z,29.40
2019-02-22T23:24:56.796Z,27.73
2019-02-22T23:27:25.899Z,26.13
2019-02-22T23:29:55.025Z,31.27
2019-02-22T23:32:24.133Z,29.50
2019-02-22T23:34:53.238Z,26.83
2019-02-22T23:37:22.360Z,29.07
2019-02-22T23:39:51.463Z,26.87
2019-02-22T23:42:20.592Z,33.13
2019-02-22T23:44:49.693Z,30.77
2019-02-22T23:47:18.816Z,27.27
2019-02-22T23:49:47.915Z,29.30
2019-02-22T23:52:17.035Z,27.27
2019-02-22T23:54:46.146Z,30.80
2019-02-22T23:57:15.287Z,28.13
2019-02-22T23:59:44.398Z,29.60
